CheckWX is a tool to help pilots better visualize weather data.  It is not intended as a substitute for an official pre-flight weather briefing.

04:43:32 UTC

WIDD TAF
Hang Nadim International Airport
Batam Island, Indonesia
TAF WIDD 222300Z 2300/2324 33006KT 9999 FEW014

Mar-23@
00:00 UTC

Mar-23 @ 00:00 UTC

Mar-24@
00:00 UTC

Mar-24 @ 00:00 UTC

TAF WIDD 222300Z 2300/2324 33006KT 9999 FEW014
Wind
  • 330° at 6 KTS
Cloud Levels
  • Few at 1,400' AGL